createdAt,value
2018-09-10T00:00:23.535Z,15.70
2018-09-10T00:02:54.334Z,15.20
2018-09-10T00:05:25.232Z,15.00
2018-09-10T00:07:56.035Z,15.10
2018-09-10T00:10:26.975Z,15.40
2018-09-10T00:12:57.773Z,15.20
2018-09-10T00:15:28.595Z,15.10
2018-09-10T00:17:59.406Z,15.00
2018-09-10T00:20:30.227Z,14.80
2018-09-10T00:23:01.286Z,14.90
2018-09-10T00:25:32.163Z,15.20
2018-09-10T00:28:02.915Z,15.40
2018-09-10T00:30:33.754Z,15.20
2018-09-10T00:33:04.569Z,15.40
2018-09-10T00:35:35.436Z,15.50
2018-09-10T00:38:06.186Z,15.20
2018-09-10T00:40:37.075Z,15.00
2018-09-10T00:43:08.090Z,14.90
2018-09-10T00:45:38.942Z,14.60
2018-09-10T00:48:09.749Z,14.40
2018-09-10T00:50:40.645Z,14.60
2018-09-10T00:53:11.205Z,14.50
2018-09-10T00:55:41.960Z,14.60
2018-09-10T00:58:12.788Z,14.70
2018-09-10T01:00:43.862Z,14.60
2018-09-10T01:03:14.671Z,14.50
2018-09-10T01:05:45.438Z,14.80
2018-09-10T01:08:16.159Z,14.80
2018-09-10T01:10:46.955Z,14.90
2018-09-10T01:13:17.678Z,15.00
2018-09-10T01:15:48.415Z,14.80
2018-09-10T01:18:19.123Z,14.70
2018-09-10T01:20:49.834Z,15.00
2018-09-10T01:23:20.547Z,15.00
2018-09-10T01:25:51.303Z,14.90
2018-09-10T01:28:22.018Z,14.70
2018-09-10T01:30:52.750Z,14.70
2018-09-10T01:33:28.750Z,14.60
2018-09-10T01:35:59.654Z,14.40
2018-09-10T01:38:30.404Z,14.40
2018-09-10T01:41:01.123Z,14.50
2018-09-10T01:43:31.774Z,14.60
2018-09-10T01:46:02.930Z,14.70
2018-09-10T01:48:33.788Z,14.40
2018-09-10T01:51:04.690Z,14.10
2018-09-10T01:53:35.550Z,14.10
2018-09-10T01:56:07.481Z,14.10
2018-09-10T01:58:38.400Z,14.00
2018-09-10T02:01:09.466Z,13.90
2018-09-10T02:03:40.328Z,13.90
2018-09-10T02:06:11.361Z,13.90
2018-09-10T02:08:42.258Z,13.90
2018-09-10T02:11:13.221Z,13.80
2018-09-10T02:13:44.184Z,13.80
2018-09-10T02:16:16.937Z,13.80
2018-09-10T02:18:48.458Z,14.00
2018-09-10T02:21:19.597Z,14.20
2018-09-10T02:23:50.458Z,14.30
2018-09-10T02:26:21.510Z,14.30
2018-09-10T02:28:52.358Z,13.90
2018-09-10T02:31:23.212Z,13.80
2018-09-10T02:33:54.127Z,13.80
2018-09-10T02:36:25.034Z,13.90
2018-09-10T02:38:55.900Z,13.80
2018-09-10T02:41:26.897Z,13.70
2018-09-10T02:43:57.821Z,13.70
2018-09-10T02:46:28.838Z,13.70
2018-09-10T02:48:59.730Z,13.70
2018-09-10T02:51:30.718Z,14.00
2018-09-10T02:54:01.638Z,14.20
2018-09-10T02:56:32.578Z,14.30
2018-09-10T02:59:03.373Z,14.00
2018-09-10T03:01:34.157Z,13.70
2018-09-10T03:04:04.863Z,13.70
2018-09-10T03:06:35.620Z,13.90
2018-09-10T03:09:08.781Z,13.60
2018-09-10T03:11:39.650Z,13.40
2018-09-10T03:14:10.753Z,13.40
2018-09-10T03:16:41.530Z,13.50
2018-09-10T03:19:12.250Z,13.50
2018-09-10T03:21:43.044Z,13.90
2018-09-10T03:24:13.894Z,13.80
2018-09-10T03:26:44.655Z,13.80
2018-09-10T03:29:15.333Z,13.80
2018-09-10T03:31:46.110Z,13.90
2018-09-10T03:34:16.785Z,13.90
2018-09-10T03:36:47.798Z,13.90
2018-09-10T03:39:18.524Z,14.00
2018-09-10T03:41:50.245Z,14.20
2018-09-10T03:44:20.881Z,13.90
2018-09-10T03:46:51.503Z,13.80
2018-09-10T03:49:22.399Z,13.90
2018-09-10T03:51:53.234Z,14.00
2018-09-10T03:54:24.279Z,14.00
2018-09-10T03:56:55.079Z,13.70
2018-09-10T03:59:25.710Z,13.80
2018-09-10T04:01:56.433Z,13.90
2018-09-10T04:04:27.051Z,13.80
2018-09-10T04:06:57.731Z,13.80
2018-09-10T04:09:28.418Z,13.60
2018-09-10T04:11:59.388Z,13.30
2018-09-10T04:14:30.259Z,13.00
2018-09-10T04:17:01.212Z,13.20
2018-09-10T04:19:32.020Z,13.10
2018-09-10T04:22:03.027Z,13.50
2018-09-10T04:24:33.751Z,13.80
2018-09-10T04:27:04.855Z,13.70
2018-09-10T04:29:35.844Z,13.70
2018-09-10T04:32:06.746Z,13.70
2018-09-10T04:34:37.491Z,13.80
2018-09-10T04:37:08.396Z,13.80
2018-09-10T04:39:39.256Z,13.80
2018-09-10T04:42:10.013Z,13.40
2018-09-10T04:44:40.787Z,13.00
2018-09-10T04:47:11.659Z,13.20
2018-09-10T04:49:42.508Z,13.50
2018-09-10T04:52:13.279Z,13.70
2018-09-10T04:54:43.901Z,13.70
2018-09-10T04:57:14.990Z,13.70
2018-09-10T04:59:45.764Z,13.70
2018-09-10T05:02:16.531Z,13.80
2018-09-10T05:04:47.599Z,13.80
2018-09-10T05:07:18.280Z,13.70
2018-09-10T05:09:49.167Z,13.50
2018-09-10T05:12:19.819Z,13.50
2018-09-10T05:14:50.779Z,13.60
2018-09-10T05:17:21.915Z,13.10
2018-09-10T05:19:53.291Z,12.80
2018-09-10T05:22:24.290Z,13.10
2018-09-10T05:24:55.413Z,12.90
2018-09-10T05:27:26.339Z,13.00
2018-09-10T05:29:57.259Z,12.90
2018-09-10T05:32:28.062Z,13.00
2018-09-10T05:34:59.202Z,13.20
2018-09-10T05:37:30.455Z,13.20
2018-09-10T05:40:01.564Z,13.10
2018-09-10T05:42:33.138Z,13.10
2018-09-10T05:45:04.813Z,13.30
2018-09-10T05:47:35.798Z,13.40
2018-09-10T05:50:06.946Z,13.30
2018-09-10T05:52:38.471Z,13.00
2018-09-10T05:55:09.380Z,13.00
2018-09-10T05:57:40.306Z,13.00
2018-09-10T06:00:11.912Z,13.10
2018-09-10T06:02:43.206Z,13.40
2018-09-10T06:05:14.142Z,13.20
2018-09-10T06:07:45.106Z,13.30
2018-09-10T06:10:16.102Z,13.30
2018-09-10T06:12:47.022Z,13.50
2018-09-10T06:15:18.487Z,13.40
2018-09-10T06:17:49.342Z,13.30
2018-09-10T06:20:20.293Z,13.40
2018-09-10T06:22:51.260Z,13.60
2018-09-10T06:25:22.151Z,13.80
2018-09-10T06:27:53.398Z,13.70
2018-09-10T06:30:24.653Z,13.80
2018-09-10T06:32:55.418Z,14.00
2018-09-10T06:35:26.277Z,13.90
2018-09-10T06:37:57.299Z,13.80
2018-09-10T06:40:28.764Z,13.90
2018-09-10T06:42:59.725Z,14.10
2018-09-10T06:45:31.022Z,14.20
2018-09-10T06:48:03.139Z,14.10
2018-09-10T06:50:33.980Z,14.40
2018-09-10T06:53:04.921Z,14.40
2018-09-10T06:55:35.780Z,14.30
2018-09-10T06:58:07.266Z,14.40
2018-09-10T07:00:38.094Z,14.40
2018-09-10T07:03:09.058Z,14.40
2018-09-10T07:05:39.939Z,14.50
2018-09-10T07:08:10.889Z,14.50
2018-09-10T07:10:41.854Z,14.40
2018-09-10T07:13:12.778Z,14.30
2018-09-10T07:15:43.559Z,14.30
2018-09-10T07:18:14.413Z,14.50
2018-09-10T07:20:45.256Z,14.50
2018-09-10T07:23:15.903Z,14.60
2018-09-10T07:25:47.175Z,14.70
2018-09-10T07:28:17.991Z,14.80
2018-09-10T07:30:48.810Z,15.00
2018-09-10T07:33:19.672Z,15.30
2018-09-10T07:35:50.228Z,15.20
2018-09-10T07:38:20.919Z,15.30
2018-09-10T07:40:51.563Z,15.20
2018-09-10T07:43:22.305Z,15.20
2018-09-10T07:45:53.049Z,15.40
2018-09-10T07:48:23.782Z,15.70
2018-09-10T07:50:54.435Z,16.00
2018-09-10T07:53:25.731Z,16.00
2018-09-10T07:55:56.332Z,15.80
2018-09-10T07:58:27.006Z,15.80
2018-09-10T08:00:57.810Z,15.90
2018-09-10T08:03:28.547Z,16.00
2018-09-10T08:05:59.180Z,16.10
2018-09-10T08:08:29.857Z,16.20
2018-09-10T08:11:00.603Z,16.30
2018-09-10T08:13:31.277Z,16.40
2018-09-10T08:16:01.913Z,16.60
2018-09-10T08:18:33.116Z,16.80
2018-09-10T08:21:04.095Z,17.00
2018-09-10T08:23:35.059Z,17.10
2018-09-10T08:26:05.851Z,17.20
2018-09-10T08:28:36.765Z,17.20
2018-09-10T08:31:07.735Z,17.40
2018-09-10T08:33:38.484Z,17.60
2018-09-10T08:36:09.218Z,17.70
2018-09-10T08:38:40.065Z,17.70
2018-09-10T08:41:10.827Z,17.80
2018-09-10T08:43:43.010Z,17.80
2018-09-10T08:46:13.775Z,17.80
2018-09-10T08:48:45.414Z,17.70
2018-09-10T08:51:16.209Z,17.70
2018-09-10T08:53:46.930Z,17.70
2018-09-10T08:56:18.002Z,17.90
2018-09-10T08:58:48.651Z,18.40
2018-09-10T09:01:19.402Z,18.80
2018-09-10T09:03:50.083Z,19.10
2018-09-10T09:06:20.631Z,19.20
2018-09-10T09:08:51.395Z,19.20
2018-09-10T09:11:22.199Z,19.20
2018-09-10T09:13:52.882Z,19.30
2018-09-10T09:16:23.816Z,19.50
2018-09-10T09:18:54.863Z,19.50
2018-09-10T09:21:25.903Z,19.60
2018-09-10T09:23:57.181Z,19.80
2018-09-10T09:26:28.386Z,19.70
2018-09-10T09:28:59.398Z,19.80
2018-09-10T09:31:30.223Z,20.00
2018-09-10T09:34:01.064Z,20.20
2018-09-10T09:36:37.109Z,20.30
2018-09-10T09:39:13.914Z,20.50
2018-09-10T09:41:50.028Z,20.40
2018-09-10T09:44:26.472Z,20.50
2018-09-10T09:46:57.353Z,20.60
2018-09-10T09:49:28.576Z,20.60
2018-09-10T09:51:59.583Z,20.70
2018-09-10T09:54:30.463Z,20.80
2018-09-10T09:57:01.489Z,20.80
2018-09-10T09:59:32.301Z,21.10
2018-09-10T10:02:08.488Z,21.10
2018-09-10T10:04:39.619Z,21.40
2018-09-10T10:07:10.550Z,21.30
2018-09-10T10:09:41.367Z,21.40
2018-09-10T10:12:12.442Z,21.50
2018-09-10T10:14:43.672Z,21.60
2018-09-10T10:17:14.727Z,21.40
2018-09-10T10:19:45.718Z,21.30
2018-09-10T10:22:17.051Z,21.60
2018-09-10T10:24:47.970Z,21.60
2018-09-10T10:27:18.831Z,21.50
2018-09-10T10:29:49.818Z,21.60
2018-09-10T10:32:20.730Z,21.90
2018-09-10T10:34:51.613Z,22.10
2018-09-10T10:37:22.633Z,22.40
2018-09-10T10:39:53.505Z,22.60
2018-09-10T10:42:24.510Z,22.70
2018-09-10T10:44:55.431Z,22.60
2018-09-10T10:47:26.681Z,22.70
2018-09-10T10:49:57.663Z,22.60
2018-09-10T10:52:28.725Z,23.00
2018-09-10T10:54:59.900Z,23.10
2018-09-10T10:57:31.064Z,23.10
2018-09-10T11:00:02.087Z,22.90
2018-09-10T11:02:33.032Z,22.90
2018-09-10T11:05:03.962Z,23.30
2018-09-10T11:07:34.675Z,23.50
2018-09-10T11:10:06.184Z,23.70
2018-09-10T11:12:36.962Z,23.70
2018-09-10T11:15:07.767Z,23.80
2018-09-10T11:17:39.103Z,23.90
2018-09-10T11:20:10.215Z,24.00
2018-09-10T11:22:41.104Z,24.20
2018-09-10T11:25:11.883Z,24.20
2018-09-10T11:27:42.710Z,24.30
2018-09-10T11:30:13.496Z,24.30
2018-09-10T11:32:44.359Z,24.40
2018-09-10T11:35:15.087Z,24.40
2018-09-10T11:37:45.832Z,24.20
2018-09-10T11:40:16.623Z,24.10
2018-09-10T11:42:47.579Z,24.30
2018-09-10T11:45:18.384Z,24.30
2018-09-10T11:47:49.152Z,24.40
2018-09-10T11:50:20.001Z,24.70
2018-09-10T11:52:50.778Z,24.90
2018-09-10T11:55:21.864Z,25.00
2018-09-10T11:57:52.784Z,25.20
2018-09-10T12:00:24.340Z,25.10
2018-09-10T12:02:55.748Z,25.20
2018-09-10T12:05:27.401Z,25.50
2018-09-10T12:07:59.174Z,25.30
2018-09-10T12:10:30.806Z,25.50
2018-09-10T12:13:02.263Z,25.80
2018-09-10T12:15:33.194Z,25.70
2018-09-10T12:18:04.071Z,25.60
2018-09-10T12:20:34.901Z,26.10
2018-09-10T12:23:05.855Z,26.00
2018-09-10T12:25:36.758Z,25.70
2018-09-10T12:28:08.095Z,25.90
2018-09-10T12:30:39.133Z,25.90
2018-09-10T12:33:10.111Z,26.20
2018-09-10T12:35:41.311Z,26.20
2018-09-10T12:38:12.291Z,26.70
2018-09-10T12:40:43.806Z,26.60
2018-09-10T12:43:14.692Z,26.70
2018-09-10T12:45:45.581Z,26.80
2018-09-10T12:48:16.699Z,26.80
2018-09-10T12:50:47.615Z,26.70
2018-09-10T12:53:18.896Z,26.80
2018-09-10T12:55:50.051Z,26.80
2018-09-10T12:58:20.963Z,26.80
2018-09-10T13:00:51.794Z,26.80
2018-09-10T13:03:22.951Z,25.90
2018-09-10T13:05:54.056Z,25.80
2018-09-10T13:08:25.011Z,26.00
2018-09-10T13:10:55.912Z,26.20
2018-09-10T13:13:26.831Z,26.30
2018-09-10T13:15:57.795Z,26.30
2018-09-10T13:18:28.839Z,26.10
2018-09-10T13:21:00.611Z,26.50
2018-09-10T13:23:31.551Z,26.60
2018-09-10T13:26:02.483Z,26.60
2018-09-10T13:28:33.363Z,26.40
2018-09-10T13:31:04.243Z,26.60
2018-09-10T13:33:35.083Z,26.80
2018-09-10T13:36:05.928Z,26.80
2018-09-10T13:38:36.837Z,26.60
2018-09-10T13:41:08.080Z,26.90
2018-09-10T13:43:41.213Z,27.00
2018-09-10T13:46:12.196Z,27.20
2018-09-10T13:48:43.256Z,27.10
2018-09-10T13:51:14.078Z,26.70
2018-09-10T13:53:45.139Z,26.70
2018-09-10T13:56:15.994Z,26.50
2018-09-10T13:58:47.683Z,26.20
2018-09-10T14:01:19.082Z,26.80
2018-09-10T14:03:49.987Z,27.30
2018-09-10T14:06:21.446Z,27.10
2018-09-10T14:08:52.525Z,27.30
2018-09-10T14:11:23.753Z,27.10
2018-09-10T14:13:54.675Z,26.40
2018-09-10T14:16:25.608Z,26.00
2018-09-10T14:18:56.625Z,26.40
2018-09-10T14:21:28.422Z,26.60
2018-09-10T14:23:59.232Z,26.90
2018-09-10T14:26:30.226Z,26.80
2018-09-10T14:29:01.280Z,27.20
2018-09-10T14:31:32.424Z,27.60
2018-09-10T14:34:06.935Z,27.60
2018-09-10T14:36:37.881Z,27.30
2018-09-10T14:39:10.105Z,26.90
2018-09-10T14:41:41.085Z,26.80
2018-09-10T14:44:12.179Z,26.90
2018-09-10T14:46:43.205Z,27.20
2018-09-10T14:49:14.157Z,27.10
2018-09-10T14:51:45.676Z,26.90
2018-09-10T14:54:16.520Z,26.60
2018-09-10T14:56:47.659Z,26.10
2018-09-10T14:59:18.436Z,25.90
2018-09-10T15:01:49.170Z,25.80
2018-09-10T15:04:19.827Z,25.50
2018-09-10T15:06:50.795Z,25.30
2018-09-10T15:09:21.880Z,25.40
2018-09-10T15:11:52.624Z,25.50
2018-09-10T15:14:23.378Z,25.30
2018-09-10T15:16:54.217Z,25.20
2018-09-10T15:19:25.043Z,25.10
2018-09-10T15:21:56.203Z,24.80
2018-09-10T15:24:27.188Z,24.40
2018-09-10T15:26:58.247Z,24.40
2018-09-10T15:29:29.019Z,24.40
2018-09-10T15:32:00.183Z,24.50
2018-09-10T15:34:31.043Z,25.20
2018-09-10T15:37:01.955Z,25.10
2018-09-10T15:39:33.314Z,25.10
2018-09-10T15:42:04.325Z,25.30
2018-09-10T15:44:35.336Z,25.10
2018-09-10T15:47:06.457Z,24.90
2018-09-10T15:49:37.549Z,25.10
2018-09-10T15:52:08.841Z,25.00
2018-09-10T15:54:40.018Z,25.30
2018-09-10T15:57:11.090Z,25.20
2018-09-10T15:59:42.157Z,25.30
2018-09-10T16:02:13.479Z,25.20
2018-09-10T16:04:45.633Z,25.20
2018-09-10T16:07:17.489Z,24.80
2018-09-10T16:09:48.236Z,24.50
2018-09-10T16:12:19.377Z,24.60
2018-09-10T16:14:50.416Z,24.60
2018-09-10T16:17:21.895Z,25.00
2018-09-10T16:19:52.770Z,24.40
2018-09-10T16:22:24.827Z,24.20
2018-09-10T16:24:55.830Z,24.20
2018-09-10T16:27:26.885Z,23.50
2018-09-10T16:29:57.965Z,23.10
2018-09-10T16:32:29.216Z,22.80
2018-09-10T16:35:00.260Z,22.90
2018-09-10T16:37:31.370Z,22.80
2018-09-10T16:40:02.459Z,22.50
2018-09-10T16:42:33.621Z,22.60
2018-09-10T16:45:04.680Z,22.70
2018-09-10T16:47:35.686Z,22.50
2018-09-10T16:50:06.858Z,22.50
2018-09-10T16:52:37.971Z,22.10
2018-09-10T16:55:09.187Z,21.80
2018-09-10T16:57:40.851Z,21.80
2018-09-10T17:00:11.994Z,22.00
2018-09-10T17:02:43.196Z,21.70
2018-09-10T17:05:14.438Z,21.60
2018-09-10T17:07:45.664Z,21.50
2018-09-10T17:10:16.945Z,21.40
2018-09-10T17:12:47.997Z,21.10
2018-09-10T17:15:18.960Z,21.20
2018-09-10T17:17:50.579Z,21.00
2018-09-10T17:20:21.639Z,20.90
2018-09-10T17:22:52.659Z,20.80
2018-09-10T17:25:24.034Z,20.80
2018-09-10T17:27:55.686Z,20.60
2018-09-10T17:30:26.592Z,20.40
2018-09-10T17:32:57.437Z,20.70
2018-09-10T17:35:29.775Z,20.20
2018-09-10T17:38:00.612Z,20.10
2018-09-10T17:40:31.850Z,20.20
2018-09-10T17:43:03.758Z,20.10
2018-09-10T17:45:34.880Z,19.90
2018-09-10T17:48:06.326Z,20.00
2018-09-10T17:50:37.222Z,20.00
2018-09-10T17:53:08.428Z,19.70
2018-09-10T17:55:39.663Z,19.80
2018-09-10T17:58:10.609Z,20.00
2018-09-10T18:00:42.633Z,19.90
2018-09-10T18:03:13.550Z,19.80
2018-09-10T18:05:45.374Z,19.80
2018-09-10T18:08:16.323Z,19.70
2018-09-10T18:10:47.588Z,19.80
2018-09-10T18:13:20.188Z,19.80
2018-09-10T18:15:51.268Z,19.70
2018-09-10T18:18:22.167Z,19.70
2018-09-10T18:20:54.072Z,19.70
2018-09-10T18:23:25.077Z,19.60
2018-09-10T18:25:56.298Z,19.70
2018-09-10T18:28:27.307Z,19.70
2018-09-10T18:30:58.132Z,20.00
2018-09-10T18:33:29.089Z,20.10
2018-09-10T18:36:00.088Z,19.90
2018-09-10T18:38:31.212Z,19.60
2018-09-10T18:41:02.259Z,19.70
2018-09-10T18:43:33.438Z,19.80
2018-09-10T18:46:04.456Z,19.80
2018-09-10T18:48:35.526Z,20.00
2018-09-10T18:51:06.450Z,19.90
2018-09-10T18:53:37.873Z,19.80
2018-09-10T18:56:08.837Z,19.80
2018-09-10T18:58:40.251Z,19.80
2018-09-10T19:01:11.403Z,19.50
2018-09-10T19:03:42.310Z,19.50
2018-09-10T19:06:13.701Z,19.50
2018-09-10T19:08:44.994Z,19.50
2018-09-10T19:11:16.435Z,19.60
2018-09-10T19:13:48.732Z,19.70
2018-09-10T19:16:20.264Z,19.80
2018-09-10T19:18:52.049Z,19.80
2018-09-10T19:21:25.604Z,19.90
2018-09-10T19:23:58.045Z,19.90
2018-09-10T19:26:29.518Z,19.80
2018-09-10T19:29:00.792Z,19.60
2018-09-10T19:31:32.163Z,19.60
2018-09-10T19:34:03.527Z,19.60
2018-09-10T19:36:34.572Z,19.70
2018-09-10T19:39:07.626Z,19.00
2018-09-10T19:41:38.672Z,18.80
2018-09-10T19:44:09.880Z,18.80
2018-09-10T19:46:41.016Z,18.90
2018-09-10T19:49:11.992Z,18.70
2018-09-10T19:51:43.015Z,18.50
2018-09-10T19:54:15.674Z,18.40
2018-09-10T19:56:46.524Z,18.50
2018-09-10T19:59:17.417Z,18.60
2018-09-10T20:01:48.503Z,18.60
2018-09-10T20:04:19.498Z,18.30
2018-09-10T20:06:50.783Z,18.20
2018-09-10T20:09:21.717Z,18.20
2018-09-10T20:11:54.351Z,18.40
2018-09-10T20:14:26.127Z,18.20
2018-09-10T20:16:57.538Z,18.10
2018-09-10T20:19:29.032Z,18.10
2018-09-10T20:22:00.053Z,18.10
2018-09-10T20:24:31.264Z,18.20
2018-09-10T20:27:02.179Z,18.10
2018-09-10T20:29:33.392Z,17.80
2018-09-10T20:32:04.426Z,17.70
2018-09-10T20:34:35.407Z,17.80
2018-09-10T20:37:06.517Z,17.80
2018-09-10T20:39:37.548Z,17.70
2018-09-10T20:42:08.661Z,17.60
2018-09-10T20:44:39.736Z,17.50
2018-09-10T20:47:10.940Z,17.40
2018-09-10T20:49:42.031Z,17.40
2018-09-10T20:52:13.593Z,17.40
2018-09-10T20:54:44.535Z,17.60
2018-09-10T20:57:16.249Z,17.40
2018-09-10T20:59:47.834Z,17.30
2018-09-10T21:02:18.917Z,17.60
2018-09-10T21:04:50.071Z,17.50
2018-09-10T21:07:20.990Z,17.30
2018-09-10T21:09:51.998Z,17.20
2018-09-10T21:12:22.929Z,17.10
2018-09-10T21:14:53.895Z,17.40
2018-09-10T21:17:24.765Z,17.20
2018-09-10T21:19:55.799Z,16.90
2018-09-10T21:22:26.721Z,16.90
2018-09-10T21:24:57.710Z,16.70
2018-09-10T21:27:28.724Z,16.80
2018-09-10T21:29:59.505Z,17.00
2018-09-10T21:32:30.723Z,16.80
2018-09-10T21:35:01.398Z,16.50
2018-09-10T21:37:32.184Z,16.60
2018-09-10T21:40:03.246Z,16.80
2018-09-10T21:42:34.406Z,16.90
2018-09-10T21:45:05.766Z,16.90
2018-09-10T21:47:36.748Z,16.70
2018-09-10T21:50:07.788Z,16.60
2018-09-10T21:52:38.743Z,16.40
2018-09-10T21:55:09.804Z,16.30
2018-09-10T21:57:40.488Z,16.40
2018-09-10T22:00:11.377Z,16.30
2018-09-10T22:02:42.150Z,16.20
2018-09-10T22:05:13.418Z,16.10
2018-09-10T22:07:44.149Z,16.40
2018-09-10T22:10:14.971Z,16.10
2018-09-10T22:12:45.855Z,16.00
2018-09-10T22:15:16.775Z,16.10
2018-09-10T22:17:47.767Z,16.10
2018-09-10T22:20:18.711Z,16.00
2018-09-10T22:22:49.657Z,15.80
2018-09-10T22:25:20.681Z,15.90
2018-09-10T22:27:51.583Z,16.10
2018-09-10T22:30:22.821Z,16.20
2018-09-10T22:32:53.797Z,16.20
2018-09-10T22:35:24.570Z,16.20
2018-09-10T22:37:55.295Z,16.30
2018-09-10T22:40:26.095Z,16.20
2018-09-10T22:42:57.658Z,16.00
2018-09-10T22:45:28.354Z,16.30
2018-09-10T22:47:59.102Z,16.20
2018-09-10T22:50:29.818Z,16.10
2018-09-10T22:53:00.623Z,16.10
2018-09-10T22:55:31.394Z,16.20
2018-09-10T22:58:02.142Z,16.30
2018-09-10T23:00:32.896Z,16.20
2018-09-10T23:03:03.636Z,16.20
2018-09-10T23:05:34.403Z,16.30
2018-09-10T23:08:05.218Z,15.90
2018-09-10T23:10:36.018Z,15.60
2018-09-10T23:13:06.998Z,15.50
2018-09-10T23:15:37.782Z,15.50
2018-09-10T23:18:08.586Z,15.80
2018-09-10T23:20:39.454Z,16.10
2018-09-10T23:23:11.016Z,16.20
2018-09-10T23:25:42.770Z,16.20
2018-09-10T23:28:13.631Z,16.20
2018-09-10T23:30:44.392Z,16.00
2018-09-10T23:33:15.109Z,15.70
2018-09-10T23:35:46.283Z,15.70
2018-09-10T23:38:17.173Z,16.00
2018-09-10T23:40:48.066Z,16.20
2018-09-10T23:43:18.962Z,16.10
2018-09-10T23:45:49.804Z,16.00
2018-09-10T23:48:20.691Z,15.90
2018-09-10T23:50:51.738Z,15.90
2018-09-10T23:53:22.623Z,15.70
2018-09-10T23:55:54.071Z,15.70
2018-09-10T23:58:24.972Z,15.50
